Humidity-temperature Sensor

Selected Measurement Type: Relative Humidity

 
Relative Humidity [%]     6 entries per hour
Showing data from 4/10/2021 (00:00:00 Z) to 4/9/2021 (00:01:00 Z)
Previous Next [ Day | 3-Days | 7-Days ]
First Last
Prev [ Day | 3-Days | 7-Days ] Next
First Last

Start Time:     :
End Time:     :     
Time (in GMT) :00 :50 :40 :30 :20 :10
Previous Next [ Day | 3-Days | 7-Days ]
First Last
Prev [ Day | 3-Days | 7-Days ] Next
First Last


123 => good data
MM => data is determined as missing
-- => data not received/configured
Back to Top Back to Top
4/10/2021 00:00 to 23:10 91.42 91.17 90.86 90.57 89.55 88.17
4/9/2021 23:00 to 22:10 87.29 88.62 88.99 89.59 90.06 91.00
4/9/2021 22:00 to 21:10 92.14 92.73 93.41 93.39 93.06 91.87
4/9/2021 21:00 to 20:10 89.73 88.66 89.75 89.30 88.46 87.76
4/9/2021 20:00 to 19:10 87.04 86.90 87.94 88.87 88.99 87.45
4/9/2021 19:00 to 18:10 85.44 85.50 86.09 86.24 85.76 85.81
4/9/2021 18:00 to 17:10 86.11 86.57 86.73 87.43 87.96 88.21
4/9/2021 17:00 to 16:10 87.35 85.21 84.61 85.09 88.27 88.11
4/9/2021 16:00 to 15:10 88.11 90.04 91.56 92.61 92.71 92.16
4/9/2021 15:00 to 14:10 91.89 91.15 90.18 90.31 90.59 91.68
4/9/2021 14:00 to 13:10 92.57 92.67 93.49 94.52 95.71 95.71
4/9/2021 13:00 to 12:10 95.67 95.96 96.04 96.06 96.27 96.70
4/9/2021 12:00 to 11:10 97.31 97.60 97.99 98.30 98.51 98.69
4/9/2021 11:00 to 10:10 98.53 98.96 98.85 99.20 99.20 99.37
4/9/2021 10:00 to 9:10 99.22 98.98 99.45 99.61 99.61 99.70
4/9/2021 09:00 to 8:10 99.66 99.90 99.72 99.47 99.72 99.76
4/9/2021 08:00 to 7:10 99.76 99.45 99.98 99.37 98.73 98.71
4/9/2021 07:00 to 6:10 98.61 98.61 98.75 98.94 99.20 99.39
4/9/2021 06:00 to 5:10 99.16 99.33 99.18 99.12 99.04 98.77
4/9/2021 05:00 to 4:10 98.69 98.40 97.97 97.64 96.92 96.53
4/9/2021 04:00 to 3:10 96.12 95.59 94.91 94.46 94.33 93.53
4/9/2021 03:00 to 2:10 93.27 93.94 93.74 93.88 93.70 93.45
4/9/2021 02:00 to 1:10 93.12 92.94 92.67 92.94 93.53 93.76
4/9/2021 01:00 to 0:10 94.03 94.03 94.56 95.92 96.29 96.88